Time;durP1;ratioP1;P1;durP2;ratioP2;P2;SDS_P1;SDS_P2;PMS_P1;PMS_P2;Temp;Humidity;BMP_temperature;BMP_pressure;BME280_temperature;BME280_humidity;BME280_pressure;Samples;Min_cycle;Max_cycle;Signal;HPM_P1;HPM_P2
2023/03/22 00:00:00;;;;;;;2.13;0.73;;;23.90;99.90;;;;;;5000709;28;20829;-78
2023/03/22 00:02:32;;;;;;;2.75;0.82;;;23.90;99.90;;;;;;5003082;28;20595;-78
2023/03/22 00:05:03;;;;;;;4.15;0.85;;;23.90;99.90;;;;;;5001650;28;20201;-78
2023/03/22 00:07:34;;;;;;;3.22;0.95;;;23.80;99.90;;;;;;5000829;28;20228;-78
2023/03/22 00:10:05;;;;;;;4.03;1.10;;;23.90;99.90;;;;;;5002019;28;20202;-78
2023/03/22 00:12:36;;;;;;;4.30;0.80;;;23.90;99.90;;;;;;5001130;28;20841;-79
2023/03/22 00:15:10;;;;;;;3.40;0.80;;;23.90;99.90;;;;;;5000331;28;20244;-78
2023/03/22 00:17:43;;;;;;;3.25;0.77;;;23.80;99.90;;;;;;5001978;28;20287;-79
2023/03/22 00:20:16;;;;;;;4.78;0.90;;;23.80;99.90;;;;;;5000954;28;20223;-79
2023/03/22 00:22:47;;;;;;;3.05;0.93;;;23.80;99.90;;;;;;5019467;28;20201;-79
2023/03/22 00:25:18;;;;;;;4.50;0.70;;;23.80;99.90;;;;;;5031020;28;20193;-78
2023/03/22 00:27:49;;;;;;;5.93;1.00;;;23.90;99.90;;;;;;5031089;28;20281;-78
2023/03/22 00:30:25;;;;;;;4.60;1.30;;;23.90;99.90;;;;;;5025408;28;20576;-78
2023/03/22 00:33:02;;;;;;;3.65;0.85;;;23.90;99.90;;;;;;5008072;28;20224;-80
2023/03/22 00:35:33;;;;;;;3.05;0.88;;;23.90;99.90;;;;;;5000618;28;20217;-80
2023/03/22 00:38:13;;;;;;;3.65;0.98;;;23.90;99.90;;;;;;5000456;28;20576;-80
2023/03/22 00:40:45;;;;;;;2.58;0.90;;;24.00;99.90;;;;;;5001616;28;20275;-80
2023/03/22 00:43:16;;;;;;;4.50;1.20;;;24.00;99.90;;;;;;5000620;28;20317;-79
2023/03/22 00:45:49;;;;;;;3.80;1.10;;;24.10;99.90;;;;;;5000347;28;20201;-79
2023/03/22 00:48:21;;;;;;;2.22;0.85;;;24.10;99.90;;;;;;5000557;28;20197;-77
2023/03/22 00:50:52;;;;;;;6.38;1.45;;;24.10;99.90;;;;;;4999924;28;20208;-78
2023/03/22 00:53:24;;;;;;;3.70;1.27;;;24.10;99.90;;;;;;4998982;28;20616;-79
2023/03/22 00:55:55;;;;;;;8.80;3.40;;;24.10;99.90;;;;;;5001415;28;20272;-78
2023/03/22 00:58:26;;;;;;;6.28;2.25;;;24.10;99.90;;;;;;4998972;28;20202;-79
2023/03/22 01:00:59;;;;;;;7.72;2.78;;;24.10;99.90;;;;;;4999328;28;20198;-78
2023/03/22 01:03:32;;;;;;;4.40;1.50;;;24.10;99.90;;;;;;5001877;28;20207;-78
2023/03/22 01:06:03;;;;;;;6.32;1.38;;;24.20;99.90;;;;;;4999681;28;20273;-78
2023/03/22 01:08:37;;;;;;;5.40;1.20;;;24.10;99.90;;;;;;4998438;28;20568;-79
2023/03/22 01:11:09;;;;;;;5.78;1.10;;;24.10;99.90;;;;;;5015855;28;20196;-80
2023/03/22 01:13:42;;;;;;;6.32;1.23;;;24.10;99.90;;;;;;4999580;28;20324;-78
2023/03/22 01:16:18;;;;;;;7.18;1.35;;;24.10;99.90;;;;;;4999738;28;20275;-79
2023/03/22 01:18:49;;;;;;;4.30;1.17;;;24.10;99.90;;;;;;5006009;28;20204;-79
2023/03/22 01:21:20;;;;;;;5.68;1.35;;;23.90;99.90;;;;;;4998477;28;20201;-78
2023/03/22 01:23:51;;;;;;;5.22;1.40;;;23.90;99.90;;;;;;4997662;28;20564;-80
2023/03/22 01:26:22;;;;;;;4.65;1.20;;;23.90;99.90;;;;;;5011790;28;20870;-80
2023/03/22 01:28:53;;;;;;;5.00;1.20;;;24.00;99.90;;;;;;4998856;28;20660;-78
2023/03/22 01:31:26;;;;;;;5.97;1.30;;;24.00;99.90;;;;;;5009933;28;20196;-78
2023/03/22 01:33:57;;;;;;;4.38;1.27;;;24.00;99.90;;;;;;4999303;28;20189;-79
2023/03/22 01:36:32;;;;;;;3.40;1.02;;;24.00;99.90;;;;;;5001943;28;20232;-79
2023/03/22 01:39:03;;;;;;;5.55;1.17;;;23.90;99.90;;;;;;5000563;28;20197;-78
2023/03/22 01:41:36;;;;;;;4.90;1.30;;;23.90;99.90;;;;;;4998621;28;20248;-79
2023/03/22 01:44:15;;;;;;;3.10;1.00;;;24.00;99.90;;;;;;5000499;28;20684;-78
2023/03/22 01:46:49;;;;;;;6.10;1.50;;;24.00;99.90;;;;;;5003879;28;20193;-79
2023/03/22 01:49:24;;;;;;;7.78;1.45;;;24.00;99.90;;;;;;4998965;28;20204;-79
2023/03/22 01:51:58;;;;;;;6.00;1.20;;;24.00;99.90;;;;;;4999941;28;20687;-80
2023/03/22 01:54:36;;;;;;;12.43;1.65;;;24.00;99.90;;;;;;4998617;28;20206;-79
2023/03/22 01:57:07;;;;;;;8.20;1.50;;;23.90;99.90;;;;;;4999913;28;20236;-79
2023/03/22 01:59:39;;;;;;;6.80;1.30;;;23.90;99.90;;;;;;4998823;28;20202;-79
2023/03/22 02:02:17;;;;;;;2.95;1.20;;;23.90;99.90;;;;;;4999719;28;20672;-79
2023/03/22 02:04:56;;;;;;;6.45;1.20;;;24.00;99.90;;;;;;4999483;28;20363;-79
2023/03/22 02:07:27;;;;;;;3.58;1.13;;;24.00;99.90;;;;;;5022557;28;20240;-81
2023/03/22 02:09:59;;;;;;;4.60;1.25;;;24.00;99.90;;;;;;5010349;28;20198;-79
2023/03/22 02:12:39;;;;;;;3.83;0.90;;;24.00;99.90;;;;;;5010362;28;20194;-80
2023/03/22 02:15:19;;;;;;;7.53;1.25;;;24.00;99.90;;;;;;5010563;28;20286;-80
2023/03/22 02:18:10;;;;;;;6.97;1.30;;;23.90;99.90;;;;;;5021190;28;20563;-80
2023/03/22 02:21:07;;;;;;;6.25;1.10;;;24.00;99.90;;;;;;5023304;28;20268;-79
2023/03/22 02:24:00;;;;;;;5.47;1.05;;;24.00;99.90;;;;;;5032130;28;20668;-80
2023/03/22 02:26:59;;;;;;;7.32;1.40;;;24.00;99.90;;;;;;5033653;28;20197;-80
2023/03/22 02:29:43;;;;;;;5.22;1.40;;;24.00;99.90;;;;;;5033506;28;20220;-80
2023/03/22 02:32:44;;;;;;;4.55;1.30;;;24.00;99.90;;;;;;5034287;28;20200;-80
2023/03/22 02:35:43;;;;;;;4.90;1.20;;;24.00;99.90;;;;;;5034909;28;20209;-79
2023/03/22 02:39:03;;;;;;;6.13;1.27;;;24.10;99.90;;;;;;5053883;28;20196;-80
2023/03/22 02:41:48;;;;;;;3.85;1.27;;;24.10;99.90;;;;;;5033468;28;20664;-81
2023/03/22 02:44:28;;;;;;;7.85;1.67;;;24.10;99.90;;;;;;5033195;28;20201;-80
2023/03/22 02:47:06;;;;;;;8.52;1.65;;;24.10;99.90;;;;;;5032833;28;20212;-80
2023/03/22 02:49:42;;;;;;;5.90;1.88;;;24.20;99.90;;;;;;5033254;28;20204;-80
2023/03/22 02:52:19;;;;;;;4.68;1.48;;;24.30;99.90;;;;;;5033893;28;20203;-79
2023/03/22 02:54:56;;;;;;;7.65;1.88;;;24.30;99.90;;;;;;5013513;28;20202;-80
2023/03/22 02:57:35;;;;;;;7.43;1.52;;;24.50;99.90;;;;;;5029714;28;20232;-80
2023/03/22 03:00:15;;;;;;;5.95;1.80;;;24.50;99.90;;;;;;5033957;28;20204;-80
2023/03/22 03:02:50;;;;;;;6.93;1.95;;;24.70;99.90;;;;;;5033208;28;20197;-79
2023/03/22 03:05:24;;;;;;;6.50;1.70;;;24.80;99.90;;;;;;5033172;28;20276;-79
2023/03/22 03:08:00;;;;;;;5.43;1.70;;;25.10;99.90;;;;;;5034009;28;20230;-80
2023/03/22 03:10:34;;;;;;;7.78;1.80;;;25.20;99.90;;;;;;5034748;28;20614;-79
2023/03/22 03:13:08;;;;;;;6.10;1.83;;;25.20;99.90;;;;;;5036009;28;20197;-79
2023/03/22 03:15:41;;;;;;;8.73;1.40;;;25.20;99.90;;;;;;5035256;28;20595;-79
2023/03/22 03:18:31;;;;;;;6.57;1.40;;;25.20;99.90;;;;;;5035538;28;20751;-78
2023/03/22 03:21:09;;;;;;;8.13;1.67;;;25.20;99.90;;;;;;5035319;28;20224;-79
2023/03/22 03:23:51;;;;;;;6.55;1.67;;;25.20;99.90;;;;;;5015840;28;20217;-80
2023/03/22 03:26:34;;;;;;;6.88;1.50;;;25.20;99.90;;;;;;5018159;28;20202;-79
2023/03/22 03:29:11;;;;;;;6.65;1.40;;;25.20;99.90;;;;;;5047828;28;20211;-80
2023/03/22 03:31:47;;;;;;;8.38;1.65;;;25.20;99.90;;;;;;5035552;28;20197;-79
2023/03/22 03:34:25;;;;;;;8.60;1.60;;;25.10;99.90;;;;;;5034131;28;20588;-79
2023/03/22 03:37:00;;;;;;;7.55;1.88;;;25.10;99.90;;;;;;5033369;28;20229;-82
2023/03/22 03:39:34;;;;;;;7.55;1.70;;;25.10;99.90;;;;;;5032578;28;20201;-80
2023/03/22 03:42:09;;;;;;;8.82;1.98;;;25.00;99.90;;;;;;5030100;28;20210;-78
2023/03/22 03:44:42;;;;;;;6.32;1.63;;;25.00;99.90;;;;;;5032841;28;20208;-79
2023/03/22 03:47:14;;;;;;;5.03;1.55;;;24.90;99.90;;;;;;5032448;28;20202;-80
2023/03/22 03:49:48;;;;;;;5.95;1.85;;;24.90;99.90;;;;;;5032612;28;20200;-79
2023/03/22 03:52:26;;;;;;;5.45;1.40;;;24.90;99.90;;;;;;5032292;28;20197;-78
2023/03/22 03:54:57;;;;;;;7.63;1.77;;;24.80;99.90;;;;;;5032309;28;20280;-79
2023/03/22 03:57:31;;;;;;;8.02;1.63;;;24.80;99.90;;;;;;5032944;28;20221;-79
2023/03/22 04:00:03;;;;;;;5.38;1.70;;;24.90;99.90;;;;;;5032025;28;20201;-79
2023/03/22 04:02:34;;;;;;;9.10;1.73;;;24.80;99.90;;;;;;5032438;28;20243;-79
2023/03/22 04:05:06;;;;;;;3.63;1.30;;;24.90;99.90;;;;;;5031847;28;20197;-78
2023/03/22 04:07:37;;;;;;;5.40;1.45;;;24.90;99.90;;;;;;5032004;28;20647;-80
2023/03/22 04:10:09;;;;;;;8.20;1.40;;;24.90;99.90;;;;;;5032215;28;20208;-80
2023/03/22 04:12:42;;;;;;;6.78;1.30;;;25.00;99.90;;;;;;5031432;28;20220;-80
2023/03/22 04:15:17;;;;;;;7.00;1.50;;;25.00;99.90;;;;;;5032279;28;20193;-80
2023/03/22 04:17:48;;;;;;;5.68;1.33;;;25.10;99.90;;;;;;5032900;28;20239;-79
2023/03/22 04:20:19;;;;;;;8.75;1.85;;;25.10;99.90;;;;;;5034284;28;20197;-80
2023/03/22 04:22:51;;;;;;;3.95;1.20;;;25.10;99.90;;;;;;5033526;28;20221;-79
2023/03/22 04:25:22;;;;;;;6.35;1.40;;;25.10;99.90;;;;;;5031952;28;20198;-80
2023/03/22 04:27:56;;;;;;;6.90;1.50;;;25.10;99.90;;;;;;5031828;28;20197;-79
2023/03/22 04:30:29;;;;;;;7.93;1.58;;;25.20;99.90;;;;;;5032090;28;20661;-79
2023/03/22 04:33:05;;;;;;;8.50;1.88;;;25.30;99.90;;;;;;5032126;28;20212;-79
2023/03/22 04:35:37;;;;;;;5.57;1.40;;;25.30;99.90;;;;;;5034638;28;20639;-80
2023/03/22 04:38:08;;;;;;;6.28;1.55;;;25.40;99.90;;;;;;5031425;28;20232;-80
2023/03/22 04:40:45;;;;;;;6.80;1.38;;;25.40;99.90;;;;;;5032732;28;20217;-80
2023/03/22 04:43:18;;;;;;;5.65;1.40;;;25.40;99.90;;;;;;5033464;28;20569;-78
2023/03/22 04:45:49;;;;;;;7.32;1.70;;;25.40;99.90;;;;;;5030031;28;20212;-79
2023/03/22 04:48:26;;;;;;;4.60;1.27;;;25.40;99.90;;;;;;5031897;28;20216;-77
2023/03/22 04:51:02;;;;;;;8.05;1.67;;;25.30;99.90;;;;;;5032114;28;20196;-78
2023/03/22 04:53:37;;;;;;;7.60;1.65;;;25.30;99.90;;;;;;5035258;28;20585;-79
2023/03/22 04:56:10;;;;;;;5.80;1.50;;;25.30;99.90;;;;;;5035001;28;20656;-78
2023/03/22 04:58:44;;;;;;;6.63;1.33;;;25.40;99.90;;;;;;5034466;28;20197;-79
2023/03/22 05:01:17;;;;;;;5.95;1.50;;;25.20;99.90;;;;;;5031751;28;20205;-78
2023/03/22 05:03:48;;;;;;;10.35;1.50;;;25.20;99.90;;;;;;5032441;28;20639;-79
2023/03/22 05:06:23;;;;;;;8.63;1.83;;;25.10;99.90;;;;;;5032665;28;20228;-79
2023/03/22 05:08:55;;;;;;;4.22;1.30;;;25.20;99.90;;;;;;5032064;28;20687;-80
2023/03/22 05:11:26;;;;;;;6.70;1.40;;;25.10;99.90;;;;;;5030831;28;20198;-80
2023/03/22 05:14:00;;;;;;;8.68;1.70;;;25.10;99.90;;;;;;5030888;28;20280;-80
2023/03/22 05:16:31;;;;;;;4.72;1.63;;;25.10;99.90;;;;;;5031250;28;20232;-78
2023/03/22 05:19:05;;;;;;;6.53;1.45;;;25.10;99.90;;;;;;5030918;28;20201;-80
2023/03/22 05:21:39;;;;;;;5.68;1.20;;;25.10;99.90;;;;;;5030628;28;20205;-80
2023/03/22 05:24:10;;;;;;;7.65;1.25;;;25.00;99.90;;;;;;5030426;28;20263;-80
2023/03/22 05:26:42;;;;;;;5.50;1.48;;;25.00;99.90;;;;;;5031775;28;20205;-80
2023/03/22 05:29:16;;;;;;;5.43;1.48;;;25.10;99.90;;;;;;5030928;28;20272;-79
2023/03/22 05:31:47;;;;;;;5.75;1.50;;;25.00;99.90;;;;;;5031000;28;20197;-78
2023/03/22 05:34:19;;;;;;;5.70;1.40;;;25.00;99.90;;;;;;5029889;28;20215;-79
2023/03/22 05:36:50;;;;;;;6.07;1.65;;;25.10;99.90;;;;;;5030971;28;20267;-81
2023/03/22 05:39:21;;;;;;;6.50;1.90;;;25.10;99.90;;;;;;5030663;28;20202;-80
2023/03/22 05:41:53;;;;;;;8.32;1.60;;;25.00;99.90;;;;;;5015191;28;20202;-79
2023/03/22 05:44:29;;;;;;;6.40;1.40;;;24.90;99.90;;;;;;5029437;28;20504;-79
2023/03/22 05:47:00;;;;;;;8.82;1.58;;;24.90;99.90;;;;;;5030146;28;20204;-79
2023/03/22 05:49:31;;;;;;;5.22;1.45;;;24.90;99.90;;;;;;5018097;28;20274;-79
2023/03/22 05:52:03;;;;;;;3.88;1.23;;;24.90;99.90;;;;;;5030389;28;20224;-78
2023/03/22 05:54:34;;;;;;;7.15;1.40;;;24.80;99.90;;;;;;5030575;28;20197;-78
2023/03/22 05:57:05;;;;;;;4.38;1.35;;;24.80;99.90;;;;;;5012239;28;20267;-79
2023/03/22 05:59:38;;;;;;;6.88;1.40;;;24.80;99.90;;;;;;5019197;28;20205;-78
2023/03/22 06:02:09;;;;;;;8.50;1.70;;;24.80;99.90;;;;;;5033743;28;20627;-79
2023/03/22 06:04:41;;;;;;;7.38;2.00;;;24.80;99.90;;;;;;5030033;28;20201;-79
2023/03/22 06:07:12;;;;;;;4.18;1.60;;;24.80;99.90;;;;;;5034315;28;20588;-79
2023/03/22 06:09:43;;;;;;;8.48;1.60;;;24.70;99.90;;;;;;5034774;28;20582;-79
2023/03/22 06:12:16;;;;;;;6.35;1.52;;;24.70;99.90;;;;;;5034146;28;20288;-78
2023/03/22 06:14:49;;;;;;;10.05;1.60;;;24.70;99.90;;;;;;5034439;28;20656;-78
2023/03/22 06:17:20;;;;;;;8.10;2.00;;;24.70;99.90;;;;;;5034369;28;20221;-79
2023/03/22 06:19:53;;;;;;;8.30;1.70;;;24.70;99.90;;;;;;5033883;28;20280;-78
2023/03/22 06:22:29;;;;;;;5.72;1.52;;;24.70;99.90;;;;;;5033666;28;20206;-79
2023/03/22 06:25:00;;;;;;;9.43;1.83;;;24.70;99.90;;;;;;5033538;28;20283;-80
2023/03/22 06:27:31;;;;;;;6.55;1.42;;;24.70;99.90;;;;;;5033598;28;20755;-80
2023/03/22 06:30:04;;;;;;;5.72;1.52;;;24.70;99.90;;;;;;5033448;28;20300;-79
2023/03/22 06:32:35;;;;;;;4.55;1.40;;;24.70;99.90;;;;;;5049366;28;20208;-79
2023/03/22 06:35:07;;;;;;;5.47;1.42;;;24.70;99.90;;;;;;5038621;28;20284;-78
2023/03/22 06:37:38;;;;;;;6.53;1.40;;;24.70;99.90;;;;;;5033672;28;20228;-79
2023/03/22 06:40:13;;;;;;;9.10;1.70;;;24.70;99.90;;;;;;5033166;28;20602;-78
2023/03/22 06:42:44;;;;;;;9.15;1.58;;;24.70;99.90;;;;;;5034106;28;20197;-79
2023/03/22 06:45:17;;;;;;;7.80;1.67;;;24.60;99.90;;;;;;5034239;28;20284;-78
2023/03/22 06:47:49;;;;;;;6.45;1.90;;;24.60;99.90;;;;;;5029688;28;20200;-79
2023/03/22 06:50:20;;;;;;;8.82;1.75;;;24.60;99.90;;;;;;5034478;28;20280;-78
2023/03/22 06:52:51;;;;;;;8.18;1.77;;;24.60;99.90;;;;;;5034143;28;20668;-79
2023/03/22 06:55:22;;;;;;;7.93;2.30;;;24.60;99.90;;;;;;5033301;28;20209;-78
2023/03/22 06:57:54;;;;;;;5.57;1.83;;;24.60;99.90;;;;;;5033542;28;20271;-79
2023/03/22 07:00:27;;;;;;;7.35;1.50;;;24.60;99.90;;;;;;5033268;28;20687;-79
2023/03/22 07:03:01;;;;;;;6.78;1.80;;;24.50;99.90;;;;;;5033022;28;20216;-78
2023/03/22 07:05:32;;;;;;;6.68;1.63;;;24.50;99.90;;;;;;5032788;28;20190;-79
2023/03/22 07:08:05;;;;;;;7.10;1.80;;;24.50;99.90;;;;;;5033266;28;20205;-79
2023/03/22 07:10:39;;;;;;;5.68;1.60;;;24.50;99.90;;;;;;5032861;28;20197;-79
2023/03/22 07:13:10;;;;;;;6.40;1.67;;;24.50;99.90;;;;;;5033085;28;20570;-80
2023/03/22 07:15:44;;;;;;;7.38;1.83;;;24.50;99.90;;;;;;5032904;28;20201;-79
2023/03/22 07:18:15;;;;;;;5.43;1.52;;;24.50;99.90;;;;;;5033324;28;20680;-78
2023/03/22 07:20:50;;;;;;;9.93;1.90;;;24.50;99.90;;;;;;5033159;28;20251;-80
2023/03/22 07:23:22;;;;;;;8.40;1.70;;;24.40;99.90;;;;;;5032863;28;20260;-79
2023/03/22 07:25:54;;;;;;;8.38;1.92;;;24.40;99.90;;;;;;5033496;28;20288;-79
2023/03/22 07:28:26;;;;;;;10.77;2.00;;;24.30;99.90;;;;;;5033049;28;20211;-78
2023/03/22 07:31:06;;;;;;;7.88;1.95;;;24.30;99.90;;;;;;5032798;28;20197;-78
2023/03/22 07:33:37;;;;;;;9.00;1.85;;;24.20;99.90;;;;;;5032518;28;20199;-79
2023/03/22 07:36:10;;;;;;;6.07;1.58;;;24.20;99.90;;;;;;5032954;28;20200;-79
2023/03/22 07:38:41;;;;;;;8.98;1.70;;;24.20;99.90;;;;;;5032226;28;20283;-79
2023/03/22 07:41:12;;;;;;;7.40;2.10;;;24.20;99.90;;;;;;5021863;28;20198;-78
2023/03/22 07:43:44;;;;;;;8.82;2.47;;;24.20;99.90;;;;;;5012748;28;20205;-78
2023/03/22 07:46:17;;;;;;;12.73;2.50;;;24.10;99.90;;;;;;5012996;28;20277;-79
2023/03/22 07:48:48;;;;;;;9.10;2.13;;;24.10;99.90;;;;;;5012792;28;20198;-79
2023/03/22 07:51:19;;;;;;;9.52;1.83;;;24.10;99.90;;;;;;5012871;28;20198;-78
2023/03/22 07:53:50;;;;;;;7.15;1.90;;;24.00;99.90;;;;;;5014574;28;20233;-78
2023/03/22 07:56:21;;;;;;;7.40;1.75;;;24.00;99.90;;;;;;5032167;28;20205;-78
2023/03/22 07:58:52;;;;;;;8.48;1.85;;;24.00;99.90;;;;;;5037894;28;20232;-79
2023/03/22 08:01:25;;;;;;;9.90;1.90;;;23.90;99.90;;;;;;5052036;28;20663;-78
2023/03/22 08:03:57;;;;;;;8.65;2.00;;;23.90;99.90;;;;;;5052231;28;20648;-78
2023/03/22 08:06:28;;;;;;;5.20;1.35;;;24.00;99.90;;;;;;5051990;28;20234;-78
2023/03/22 08:08:59;;;;;;;5.72;1.65;;;23.90;99.90;;;;;;5052228;28;20292;-78
2023/03/22 08:11:33;;;;;;;7.47;1.92;;;23.90;99.90;;;;;;5043689;28;20568;-79
2023/03/22 08:14:04;;;;;;;6.80;1.63;;;23.90;99.90;;;;;;5031771;28;20197;-79
2023/03/22 08:16:38;;;;;;;12.48;1.70;;;23.90;99.90;;;;;;5032202;28;20684;-78
2023/03/22 08:19:11;;;;;;;9.70;2.05;;;23.90;99.90;;;;;;5031139;28;20232;-79
2023/03/22 08:21:42;;;;;;;9.70;2.00;;;23.90;99.90;;;;;;5031053;28;20208;-78
2023/03/22 08:24:13;;;;;;;7.43;1.60;;;23.90;99.90;;;;;;5031470;28;20227;-78
2023/03/22 08:26:44;;;;;;;6.05;1.50;;;23.80;99.90;;;;;;5031391;28;20560;-79
2023/03/22 08:29:15;;;;;;;6.88;1.65;;;23.80;99.90;;;;;;5031888;28;20211;-78
2023/03/22 08:31:49;;;;;;;10.68;2.20;;;23.90;99.90;;;;;;5031919;28;20197;-78
2023/03/22 08:34:20;;;;;;;9.80;1.90;;;23.90;99.90;;;;;;5043660;28;20197;-78
2023/03/22 08:36:51;;;;;;;7.55;1.83;;;23.90;99.90;;;;;;5030538;28;20193;-78
2023/03/22 08:39:22;;;;;;;6.68;1.42;;;23.90;99.90;;;;;;5031156;28;20229;-79
2023/03/22 08:41:53;;;;;;;12.32;2.22;;;23.90;99.90;;;;;;5018560;28;20194;-78
2023/03/22 08:44:24;;;;;;;13.38;1.98;;;23.90;99.90;;;;;;5011315;28;20216;-79
2023/03/22 08:46:58;;;;;;;8.73;1.90;;;23.70;99.90;;;;;;5030919;28;20211;-77
2023/03/22 08:49:30;;;;;;;7.22;1.80;;;23.80;99.90;;;;;;5033149;28;20215;-78
2023/03/22 08:52:01;;;;;;;5.75;1.63;;;23.70;99.90;;;;;;5050887;28;20299;-78
2023/03/22 08:54:32;;;;;;;6.40;1.52;;;23.70;99.90;;;;;;5050918;28;20204;-79
2023/03/22 08:57:07;;;;;;;8.55;2.00;;;23.80;99.90;;;;;;5050804;28;20663;-79
2023/03/22 08:59:38;;;;;;;7.75;1.80;;;23.80;99.90;;;;;;5036154;28;20224;-79
2023/03/22 09:02:12;;;;;;;7.70;1.65;;;23.80;99.90;;;;;;5030685;28;20197;-79
2023/03/22 09:04:43;;;;;;;9.52;1.77;;;23.80;99.90;;;;;;5031929;28;20204;-78
2023/03/22 09:07:27;;;;;;;5.25;1.50;;;23.70;99.90;;;;;;5035757;28;20267;-80
2023/03/22 09:09:58;;;;;;;8.52;1.60;;;23.80;99.90;;;;;;5032217;28;20223;-78
2023/03/22 09:12:30;;;;;;;6.43;1.40;;;23.70;99.90;;;;;;5030459;28;20288;-78
2023/03/22 09:15:01;;;;;;;11.50;2.22;;;23.70;99.90;;;;;;5030638;28;20569;-78
2023/03/22 09:17:35;;;;;;;11.20;2.33;;;23.70;99.90;;;;;;5044547;28;20667;-79
2023/03/22 09:20:06;;;;;;;10.15;2.30;;;23.70;99.90;;;;;;5036892;28;20320;-78
2023/03/22 09:22:37;;;;;;;8.23;1.88;;;23.70;99.90;;;;;;5030560;28;20228;-80
2023/03/22 09:25:09;;;;;;;7.78;1.85;;;23.70;99.90;;;;;;5030922;28;20197;-80
2023/03/22 09:27:41;;;;;;;7.97;2.00;;;23.70;99.90;;;;;;5030462;28;20343;-78
2023/03/22 09:30:12;;;;;;;10.02;1.63;;;23.70;99.90;;;;;;5030514;28;20203;-78
2023/03/22 09:32:45;;;;;;;8.70;1.83;;;23.70;99.90;;;;;;5029941;28;20193;-78
2023/03/22 09:35:17;;;;;;;8.10;1.67;;;23.70;99.90;;;;;;5030735;28;20228;-79
2023/03/22 09:37:48;;;;;;;7.68;1.67;;;23.60;99.90;;;;;;5030562;28;20209;-77
2023/03/22 09:40:19;;;;;;;8.43;1.90;;;23.70;99.90;;;;;;5031028;28;20198;-79
2023/03/22 09:42:53;;;;;;;8.93;1.88;;;23.70;99.90;;;;;;5031759;28;20208;-78
2023/03/22 09:45:31;;;;;;;7.15;1.58;;;23.70;99.90;;;;;;5030503;28;20204;-78
2023/03/22 09:48:05;;;;;;;8.45;1.70;;;23.70;99.90;;;;;;5030276;28;20300;-77
2023/03/22 09:50:41;;;;;;;9.23;2.22;;;23.70;99.90;;;;;;5030432;28;20288;-79
2023/03/22 09:53:16;;;;;;;6.95;1.80;;;23.70;99.90;;;;;;5030229;28;20205;-77
2023/03/22 09:55:52;;;;;;;7.97;1.90;;;23.60;99.90;;;;;;5030533;28;20197;-79
2023/03/22 09:58:27;;;;;;;8.25;1.83;;;23.60;99.90;;;;;;5040043;28;20224;-78
2023/03/22 10:01:05;;;;;;;6.95;1.77;;;23.60;99.90;;;;;;5049995;28;20671;-78
2023/03/22 10:04:04;;;;;;;8.27;1.80;;;23.60;99.90;;;;;;5029603;28;20204;-78
2023/03/22 10:06:36;;;;;;;8.75;1.88;;;23.60;99.90;;;;;;5030929;28;20237;-78
2023/03/22 10:09:12;;;;;;;9.52;1.98;;;23.60;99.90;;;;;;5029955;28;20194;-79
2023/03/22 10:11:48;;;;;;;10.25;1.85;;;23.60;99.90;;;;;;5030150;28;20283;-77
2023/03/22 10:14:31;;;;;;;10.20;1.90;;;23.60;99.90;;;;;;5030958;28;20646;-78
2023/03/22 10:17:05;;;;;;;8.93;2.50;;;23.60;99.90;;;;;;5039450;28;20223;-79
2023/03/22 10:19:45;;;;;;;5.72;1.70;;;23.60;99.90;;;;;;5049364;28;20753;-78
2023/03/22 10:22:19;;;;;;;9.93;2.22;;;23.60;99.90;;;;;;5050364;28;20671;-78
2023/03/22 10:24:53;;;;;;;7.68;1.90;;;23.60;99.90;;;;;;5050453;28;20197;-78
2023/03/22 10:27:26;;;;;;;10.07;1.90;;;23.60;99.90;;;;;;5042297;28;20213;-79
2023/03/22 10:30:02;;;;;;;10.65;2.05;;;23.60;99.90;;;;;;5029969;28;20211;-78
2023/03/22 10:32:38;;;;;;;7.18;1.42;;;23.60;99.90;;;;;;5030451;28;20212;-79
2023/03/22 10:35:16;;;;;;;7.97;2.10;;;23.60;99.90;;;;;;5029741;28;20197;-79
2023/03/22 10:37:53;;;;;;;11.52;1.90;;;23.60;99.90;;;;;;5030290;28;20220;-77
2023/03/22 10:40:28;;;;;;;8.00;1.85;;;23.60;99.90;;;;;;5027420;28;20202;-77
2023/03/22 10:43:02;;;;;;;10.13;1.73;;;23.60;99.90;;;;;;5029804;28;20246;-78
2023/03/22 10:45:36;;;;;;;8.15;1.70;;;23.60;99.90;;;;;;5033501;28;20283;-79
2023/03/22 10:48:23;;;;;;;7.50;1.63;;;23.60;99.90;;;;;;5040243;28;20202;-78
2023/03/22 10:50:59;;;;;;;8.90;1.70;;;23.60;99.90;;;;;;5021360;28;20248;-78
2023/03/22 10:53:39;;;;;;;8.40;1.80;;;23.60;99.90;;;;;;5020364;28;20202;-78
2023/03/22 10:56:15;;;;;;;7.15;1.58;;;23.60;99.90;;;;;;5031314;28;20221;-78
2023/03/22 10:58:46;;;;;;;5.60;1.50;;;23.60;99.90;;;;;;5033208;28;20308;-79
2023/03/22 11:01:30;;;;;;;8.10;1.92;;;23.60;99.90;;;;;;5036971;28;20190;-77
2023/03/22 11:04:07;;;;;;;5.72;1.30;;;23.60;99.90;;;;;;5036162;28;20201;-78
2023/03/22 11:06:45;;;;;;;8.35;1.50;;;23.60;99.90;;;;;;5032726;28;20696;-78
2023/03/22 11:09:18;;;;;;;6.93;1.58;;;23.60;99.90;;;;;;5033768;28;20235;-79
2023/03/22 11:11:53;;;;;;;6.88;1.60;;;23.60;99.90;;;;;;5031402;28;20652;-79
2023/03/22 11:14:35;;;;;;;7.30;1.60;;;23.60;99.90;;;;;;5034367;28;20197;-79
2023/03/22 11:17:13;;;;;;;7.60;1.40;;;23.60;99.90;;;;;;5033388;28;20267;-79
2023/03/22 11:19:53;;;;;;;9.00;1.90;;;23.60;99.90;;;;;;5028672;28;20229;-79
2023/03/22 11:22:32;;;;;;;4.97;1.25;;;23.60;99.90;;;;;;5030539;28;20204;-78
2023/03/22 11:25:04;;;;;;;10.45;1.90;;;23.60;99.90;;;;;;5025607;28;20197;-79
2023/03/22 11:27:36;;;;;;;5.18;1.63;;;23.60;99.90;;;;;;5031317;28;20327;-79
2023/03/22 11:30:22;;;;;;;7.05;1.50;;;23.60;99.90;;;;;;5032986;28;20204;-79
2023/03/22 11:33:03;;;;;;;5.53;1.33;;;23.50;99.90;;;;;;5034302;28;20201;-78
2023/03/22 11:35:37;;;;;;;6.57;1.52;;;23.50;99.90;;;;;;5034300;28;20220;-79
2023/03/22 11:38:23;;;;;;;8.73;1.70;;;23.50;99.90;;;;;;5033895;28;20224;-79
2023/03/22 11:40:59;;;;;;;7.93;1.60;;;23.50;99.90;;;;;;5029447;28;20277;-78
2023/03/22 11:43:34;;;;;;;8.20;1.55;;;23.50;99.90;;;;;;5035565;28;20201;-80
2023/03/22 11:46:06;;;;;;;8.23;1.58;;;23.50;99.90;;;;;;5031966;28;20212;-78
2023/03/22 11:48:39;;;;;;;4.93;1.38;;;23.50;99.90;;;;;;5031472;28;20308;-79
2023/03/22 11:51:12;;;;;;;5.97;1.48;;;23.50;99.90;;;;;;5030329;28;20553;-79
2023/03/22 11:53:48;;;;;;;7.10;1.70;;;23.40;99.90;;;;;;5034656;28;20289;-79
2023/03/22 11:56:23;;;;;;;6.95;1.60;;;23.40;99.90;;;;;;5034401;28;20375;-79
2023/03/22 11:59:01;;;;;;;3.97;1.30;;;23.40;99.90;;;;;;5033544;28;20237;-79
2023/03/22 12:01:39;;;;;;;7.93;1.70;;;23.40;99.90;;;;;;5033423;28;20197;-79
2023/03/22 12:04:16;;;;;;;8.32;1.67;;;23.40;99.90;;;;;;5031525;28;20220;-78
2023/03/22 12:06:48;;;;;;;7.07;1.83;;;23.30;99.90;;;;;;5033497;28;20272;-78
2023/03/22 12:09:36;;;;;;;8.02;1.85;;;23.40;99.90;;;;;;5034522;28;20201;-77
2023/03/22 12:12:14;;;;;;;4.80;1.30;;;23.30;99.90;;;;;;5033252;28;20201;-78
2023/03/22 12:14:53;;;;;;;4.63;1.17;;;23.40;99.90;;;;;;5048163;28;20196;-78
2023/03/22 12:17:31;;;;;;;4.93;1.25;;;23.30;99.90;;;;;;5014497;28;20251;-78
2023/03/22 12:20:09;;;;;;;6.95;1.48;;;23.30;99.90;;;;;;5030778;28;20221;-78
2023/03/22 12:22:44;;;;;;;7.65;1.63;;;23.30;99.90;;;;;;5028753;28;20588;-78
2023/03/22 12:25:21;;;;;;;5.93;1.50;;;23.30;99.90;;;;;;5031881;28;20596;-79
2023/03/22 12:27:54;;;;;;;6.75;1.60;;;23.30;99.90;;;;;;5030978;28;20197;-78
2023/03/22 12:30:28;;;;;;;5.90;1.40;;;23.30;99.90;;;;;;5033322;28;20201;-77
2023/03/22 12:33:05;;;;;;;8.48;1.70;;;23.20;99.90;;;;;;5051674;28;20659;-79
2023/03/22 12:35:40;;;;;;;9.38;2.20;;;23.30;99.90;;;;;;5051924;28;20196;-78
2023/03/22 12:38:27;;;;;;;9.07;1.80;;;23.30;99.90;;;;;;5051887;28;20514;-77
2023/03/22 12:41:03;;;;;;;6.97;1.77;;;23.30;99.90;;;;;;5026455;28;20212;-77
2023/03/22 12:43:49;;;;;;;6.22;1.55;;;23.20;99.90;;;;;;5031584;28;20211;-77
2023/03/22 12:46:23;;;;;;;6.75;1.52;;;23.30;99.90;;;;;;5029809;28;20201;-78
2023/03/22 12:49:02;;;;;;;9.27;1.60;;;23.30;99.90;;;;;;5029028;28;20250;-79
2023/03/22 12:51:33;;;;;;;8.35;1.65;;;23.20;99.90;;;;;;5032378;28;20468;-78
2023/03/22 12:54:05;;;;;;;6.85;1.42;;;23.20;99.90;;;;;;5031246;28;20201;-78
2023/03/22 12:56:42;;;;;;;6.15;1.40;;;23.20;99.90;;;;;;5031003;28;20193;-76
2023/03/22 12:59:20;;;;;;;7.97;1.60;;;23.20;99.90;;;;;;5031927;28;20217;-77
2023/03/22 13:01:56;;;;;;;8.98;1.55;;;23.30;99.90;;;;;;5028241;28;20224;-78
2023/03/22 13:04:36;;;;;;;6.53;1.42;;;23.20;99.90;;;;;;5030869;28;20193;-78
2023/03/22 13:07:17;;;;;;;6.22;1.67;;;23.30;99.90;;;;;;5035642;28;20228;-77
2023/03/22 13:09:49;;;;;;;8.73;1.73;;;23.20;99.90;;;;;;5031594;28;20193;-77
2023/03/22 13:12:37;;;;;;;6.57;1.67;;;23.20;99.90;;;;;;5029503;28;20289;-78
2023/03/22 13:15:32;;;;;;;6.68;1.40;;;23.20;99.90;;;;;;5027149;28;20197;-79
2023/03/22 13:18:07;;;;;;;6.97;1.70;;;23.20;99.90;;;;;;5022805;28;20636;-78
2023/03/22 13:20:40;;;;;;;5.90;1.60;;;23.30;99.90;;;;;;5031134;28;20235;-77
2023/03/22 13:23:28;;;;;;;7.63;1.52;;;23.20;99.90;;;;;;5045996;28;20239;-78